Terminal Aerodrome Forecast
Issued by NWS

Home | Current Version | Previous Version | Text Only | Print | Product List | Glossary On
Versions: 1 2 3 4 5 6 7 8 9 10 11 12 13 14 15 16 17 18 19 20 21 22 23
000
FTUS41 KBGM 161700
TAFELM
TAF
KELM 161720Z 1618/1718 33006KT P6SM BKN040
     FM170100 VRB02KT P6SM SCT040
     FM170500 00000KT 5SM BR SKC
      TEMPO 1705/1707 3/4SM BR
     FM170700 00000KT 1/4SM FG VV001
     FM171400 24003KT P6SM FEW250=

USA.gov is the U.S. government's official web portal to all federal, state and local government web resources and services.